createdAt,value
2023-02-08T00:02:46.347Z,86.26
2023-02-08T00:05:49.049Z,85.87
2023-02-08T00:08:51.672Z,87.20
2023-02-08T00:11:54.261Z,86.60
2023-02-08T00:14:58.207Z,86.16
2023-02-08T00:18:00.845Z,86.39
2023-02-08T00:21:08.724Z,85.67
2023-02-08T00:24:11.438Z,85.92
2023-02-08T00:27:14.031Z,86.17
2023-02-08T00:30:18.062Z,86.16
2023-02-08T00:33:20.682Z,86.14
2023-02-08T00:36:23.273Z,85.98
2023-02-08T00:39:25.891Z,85.62
2023-02-08T00:42:28.475Z,86.20
2023-02-08T00:45:33.802Z,86.02
2023-02-08T00:48:36.684Z,85.70
2023-02-08T00:51:39.442Z,86.00
2023-02-08T00:54:42.677Z,86.26
2023-02-08T00:57:45.292Z,85.83
2023-02-08T01:00:51.941Z,86.53
2023-02-08T01:03:54.597Z,85.68
2023-02-08T01:06:57.227Z,85.95
2023-02-08T01:10:00.590Z,85.62
2023-02-08T01:13:03.224Z,85.26
2023-02-08T01:16:13.452Z,85.27
2023-02-08T01:19:18.419Z,86.27
2023-02-08T01:22:20.982Z,85.54
2023-02-08T01:25:23.627Z,85.30
2023-02-08T01:28:26.377Z,84.99
2023-02-08T01:31:32.514Z,85.41
2023-02-08T01:34:35.130Z,85.73
2023-02-08T01:37:37.755Z,85.86
2023-02-08T01:40:40.660Z,86.47
2023-02-08T01:44:02.410Z,86.50
2023-02-08T01:47:06.407Z,86.33
2023-02-08T01:50:09.974Z,86.26
2023-02-08T01:53:13.450Z,85.90
2023-02-08T01:56:21.556Z,86.10
2023-02-08T01:59:28.096Z,86.54
2023-02-08T02:02:32.285Z,86.71
2023-02-08T02:05:41.118Z,86.73
2023-02-08T02:08:50.320Z,86.62
2023-02-08T02:11:55.340Z,86.54
2023-02-08T02:14:57.963Z,85.88
2023-02-08T02:18:02.691Z,86.44
2023-02-08T02:21:22.096Z,85.58
2023-02-08T02:24:54.616Z,86.16
2023-02-08T02:28:29.425Z,86.35
2023-02-08T02:32:05.053Z,85.97
2023-02-08T02:35:16.507Z,85.86
2023-02-08T02:38:29.543Z,85.97
2023-02-08T02:41:59.293Z,85.79
2023-02-08T02:45:13.720Z,86.21
2023-02-08T02:48:23.791Z,86.01
2023-02-08T02:51:29.730Z,85.37
2023-02-08T02:54:38.330Z,85.17
2023-02-08T02:57:45.306Z,85.23
2023-02-08T03:00:54.103Z,86.20
2023-02-08T03:03:58.813Z,86.05
2023-02-08T03:07:11.474Z,85.75
2023-02-08T03:10:25.991Z,85.57
2023-02-08T03:13:37.326Z,85.54
2023-02-08T03:16:54.889Z,85.40
2023-02-08T03:20:08.143Z,85.26
2023-02-08T03:23:16.070Z,86.13
2023-02-08T03:26:24.478Z,85.78
2023-02-08T03:29:40.720Z,85.54
2023-02-08T03:32:47.879Z,86.21
2023-02-08T03:35:57.337Z,86.00
2023-02-08T03:39:03.371Z,86.01
2023-02-08T03:42:12.288Z,86.18
2023-02-08T03:45:19.701Z,86.37
2023-02-08T03:48:25.473Z,86.55
2023-02-08T03:51:32.691Z,86.07
2023-02-08T03:54:39.555Z,85.51
2023-02-08T03:57:49.164Z,85.88
2023-02-08T04:00:58.220Z,85.49
2023-02-08T04:04:01.884Z,85.54
2023-02-08T04:07:06.135Z,85.98
2023-02-08T04:10:09.454Z,86.44
2023-02-08T04:13:12.093Z,86.68
2023-02-08T04:16:14.989Z,86.29
2023-02-08T04:19:17.580Z,85.85
2023-02-08T04:22:21.587Z,85.83
2023-02-08T04:25:24.304Z,84.65
2023-02-08T04:28:26.996Z,85.50
2023-02-08T04:31:29.792Z,86.30
2023-02-08T04:34:32.483Z,85.90
2023-02-08T04:37:36.439Z,86.27
2023-02-08T04:40:39.403Z,85.71
2023-02-08T04:43:42.257Z,85.90
2023-02-08T04:46:44.884Z,86.24
2023-02-08T04:49:47.549Z,86.16
2023-02-08T04:52:51.475Z,85.42
2023-02-08T04:55:54.157Z,85.17
2023-02-08T04:58:56.795Z,84.63
2023-02-08T05:02:00.390Z,86.13
2023-02-08T05:05:03.057Z,85.31
2023-02-08T05:08:07.131Z,85.23
2023-02-08T05:11:09.830Z,85.92
2023-02-08T05:14:12.446Z,84.66
2023-02-08T05:17:15.272Z,85.69
2023-02-08T05:20:18.016Z,84.97
2023-02-08T05:23:21.961Z,85.94
2023-02-08T05:26:24.539Z,84.86
2023-02-08T05:29:27.250Z,85.45
2023-02-08T05:32:29.956Z,85.75
2023-02-08T05:35:32.584Z,84.64
2023-02-08T05:38:36.569Z,84.71
2023-02-08T05:41:39.159Z,85.20
2023-02-08T05:44:42.126Z,84.89
2023-02-08T05:47:47.307Z,86.08
2023-02-08T05:50:49.955Z,84.58
2023-02-08T05:53:53.907Z,84.97
2023-02-08T05:56:56.490Z,85.91
2023-02-08T05:59:59.197Z,86.03
2023-02-08T06:03:01.885Z,85.99
2023-02-08T06:06:05.183Z,86.08
2023-02-08T06:09:09.138Z,86.80
2023-02-08T06:12:11.752Z,86.04
2023-02-08T06:15:14.441Z,85.79
2023-02-08T06:18:17.064Z,85.67
2023-02-08T06:21:19.686Z,84.54
2023-02-08T06:24:25.198Z,85.77
2023-02-08T06:27:27.888Z,85.63
2023-02-08T06:30:30.479Z,85.48
2023-02-08T06:33:33.268Z,85.09
2023-02-08T06:36:35.857Z,84.95
2023-02-08T06:39:39.801Z,84.55
2023-02-08T06:42:42.961Z,84.33
2023-02-08T06:45:46.074Z,85.14
2023-02-08T06:48:48.666Z,84.97
2023-02-08T06:51:51.317Z,85.44
2023-02-08T06:54:55.245Z,84.94
2023-02-08T06:57:58.059Z,84.98
2023-02-08T07:01:00.690Z,85.95
2023-02-08T07:04:03.382Z,85.25
2023-02-08T07:07:05.954Z,84.45
2023-02-08T07:10:10.273Z,84.65
2023-02-08T07:13:12.866Z,84.84
2023-02-08T07:16:15.858Z,84.44
2023-02-08T07:19:18.523Z,85.15
2023-02-08T07:22:21.304Z,84.56
2023-02-08T07:25:25.232Z,84.63
2023-02-08T07:28:28.404Z,86.46
2023-02-08T07:31:31.055Z,87.11
2023-02-08T07:34:36.124Z,86.40
2023-02-08T07:37:38.707Z,86.61
2023-02-08T07:40:42.898Z,86.17
2023-02-08T07:43:45.580Z,86.44
2023-02-08T07:46:48.172Z,85.67
2023-02-08T07:49:50.771Z,84.82
2023-02-08T07:52:53.335Z,83.92
2023-02-08T07:55:57.444Z,84.35
2023-02-08T07:59:00.189Z,83.54
2023-02-08T08:02:02.855Z,84.16
2023-02-08T08:05:05.760Z,83.86
2023-02-08T08:08:08.445Z,84.01
2023-02-08T08:11:12.355Z,84.09
2023-02-08T08:14:15.026Z,83.43
2023-02-08T08:17:18.012Z,83.84
2023-02-08T08:20:20.659Z,83.23
2023-02-08T08:23:23.848Z,82.62
2023-02-08T08:26:27.903Z,82.30
2023-02-08T08:29:32.381Z,81.47
2023-02-08T08:32:34.981Z,82.05
2023-02-08T08:35:37.656Z,81.42
2023-02-08T08:38:40.997Z,77.86
2023-02-08T08:41:44.964Z,77.50
2023-02-08T08:44:47.573Z,80.55
2023-02-08T08:47:50.188Z,80.23
2023-02-08T08:50:54.990Z,80.23
2023-02-08T08:53:57.576Z,78.59
2023-02-08T08:57:01.808Z,77.92
2023-02-08T09:00:05.627Z,76.59
2023-02-08T09:03:08.299Z,75.96
2023-02-08T09:06:10.919Z,75.25
2023-02-08T09:09:13.523Z,75.80
2023-02-08T09:12:17.491Z,76.26
2023-02-08T09:15:20.201Z,74.91
2023-02-08T09:18:22.808Z,75.02
2023-02-08T09:21:26.165Z,73.44
2023-02-08T09:24:28.834Z,72.15
2023-02-08T09:27:32.741Z,71.20
2023-02-08T09:30:35.397Z,70.12
2023-02-08T09:33:37.978Z,71.40
2023-02-08T09:36:42.196Z,70.89
2023-02-08T09:39:44.971Z,71.70
2023-02-08T09:42:55.835Z,69.83
2023-02-08T09:46:05.376Z,68.92
2023-02-08T09:49:15.448Z,69.18
2023-02-08T09:52:24.082Z,64.30
2023-02-08T09:55:38.274Z,66.74
2023-02-08T09:58:45.116Z,65.95
2023-02-08T10:01:50.403Z,65.85
2023-02-08T10:05:01.200Z,64.74
2023-02-08T10:08:03.847Z,62.91
2023-02-08T10:11:24.210Z,62.71
2023-02-08T10:14:49.687Z,63.46
2023-02-08T10:18:10.552Z,62.91
2023-02-08T10:21:28.850Z,60.91
2023-02-08T10:24:47.731Z,60.16
2023-02-08T10:28:03.629Z,56.74
2023-02-08T10:31:18.660Z,56.99
2023-02-08T10:34:30.453Z,57.58
2023-02-08T10:37:35.458Z,56.85
2023-02-08T10:40:41.067Z,58.69
2023-02-08T10:43:47.574Z,59.92
2023-02-08T10:47:02.550Z,60.91
2023-02-08T10:50:11.142Z,57.87
2023-02-08T10:53:16.762Z,54.79
2023-02-08T10:56:36.088Z,50.72
2023-02-08T10:59:49.200Z,48.51
2023-02-08T11:02:54.325Z,43.84
2023-02-08T11:05:57.131Z,44.51
2023-02-08T11:08:59.864Z,43.82
2023-02-08T11:12:03.380Z,45.13
2023-02-08T11:15:06.332Z,44.61
2023-02-08T11:18:23.534Z,40.97
2023-02-08T11:21:30.161Z,40.15
2023-02-08T11:24:40.018Z,38.30
2023-02-08T11:27:49.567Z,37.77
2023-02-08T11:31:03.466Z,36.23
2023-02-08T11:34:09.198Z,36.25
2023-02-08T11:37:17.668Z,36.26
2023-02-08T11:40:23.995Z,37.38
2023-02-08T11:43:30.072Z,36.44
2023-02-08T11:46:35.814Z,34.15
2023-02-08T11:49:41.773Z,36.38
2023-02-08T11:52:46.152Z,39.29
2023-02-08T11:56:03.555Z,40.54
2023-02-08T11:59:19.799Z,40.38
2023-02-08T12:02:32.525Z,44.45
2023-02-08T12:05:45.097Z,46.39
2023-02-08T12:08:54.151Z,47.00
2023-02-08T12:12:08.979Z,46.67
2023-02-08T12:15:23.786Z,47.74
2023-02-08T12:18:49.140Z,47.63
2023-02-08T12:21:59.103Z,48.09
2023-02-08T12:25:20.412Z,43.97
2023-02-08T12:28:32.340Z,44.62
2023-02-08T12:31:47.232Z,41.50
2023-02-08T12:35:05.564Z,42.05
2023-02-08T12:38:38.046Z,42.14
2023-02-08T12:41:49.653Z,41.85
2023-02-08T12:45:09.918Z,40.76
2023-02-08T12:48:28.844Z,41.71
2023-02-08T12:51:40.385Z,42.72
2023-02-08T12:54:50.372Z,40.63
2023-02-08T12:57:58.156Z,39.00
2023-02-08T13:01:08.965Z,37.46
2023-02-08T13:04:16.436Z,35.88
2023-02-08T13:07:25.075Z,33.62
2023-02-08T13:10:34.403Z,33.69
2023-02-08T13:13:40.604Z,33.24
2023-02-08T13:16:47.736Z,32.98
2023-02-08T13:20:00.545Z,31.90
2023-02-08T13:23:08.943Z,34.04
2023-02-08T13:26:16.505Z,32.00
2023-02-08T13:29:21.477Z,30.04
2023-02-08T13:32:30.091Z,28.58
2023-02-08T13:35:33.525Z,28.42
2023-02-08T13:38:37.882Z,28.37
2023-02-08T13:41:53.513Z,27.05
2023-02-08T13:44:59.070Z,27.78
2023-02-08T13:48:03.560Z,26.89
2023-02-08T13:51:07.931Z,28.23
2023-02-08T13:54:12.997Z,29.69
2023-02-08T13:57:53.711Z,30.65
2023-02-08T14:01:13.642Z,31.38
2023-02-08T14:04:33.759Z,31.46
2023-02-08T14:07:44.559Z,32.24
2023-02-08T14:11:01.310Z,32.97
2023-02-08T14:14:13.760Z,33.38
2023-02-08T14:17:21.553Z,33.56
2023-02-08T14:20:30.450Z,35.78
2023-02-08T14:23:39.467Z,37.45
2023-02-08T14:26:43.151Z,37.47
2023-02-08T14:29:56.769Z,38.53
2023-02-08T14:33:17.225Z,38.98
2023-02-08T14:36:28.720Z,39.86
2023-02-08T14:39:34.518Z,41.43
2023-02-08T14:42:56.291Z,41.15
2023-02-08T14:46:38.410Z,42.02
2023-02-08T14:49:45.602Z,42.37
2023-02-08T14:52:53.852Z,44.15
2023-02-08T14:56:02.106Z,45.44
2023-02-08T14:59:08.970Z,47.99
2023-02-08T15:02:17.093Z,47.09
2023-02-08T15:05:26.685Z,50.86
2023-02-08T15:08:29.342Z,49.92
2023-02-08T15:11:34.205Z,50.24
2023-02-08T15:14:40.727Z,50.39
2023-02-08T15:17:47.523Z,49.28
2023-02-08T15:21:02.090Z,51.14
2023-02-08T15:24:14.152Z,51.25
2023-02-08T15:27:22.001Z,51.42
2023-02-08T15:30:26.398Z,53.16
2023-02-08T15:33:29.397Z,53.53
2023-02-08T15:36:34.753Z,54.34
2023-02-08T15:39:39.741Z,55.66
2023-02-08T15:42:45.079Z,56.39
2023-02-08T15:45:57.489Z,56.38
2023-02-08T15:49:00.706Z,56.14
2023-02-08T15:52:06.572Z,56.81
2023-02-08T15:55:13.497Z,57.30
2023-02-08T15:58:28.443Z,56.33
2023-02-08T16:01:32.451Z,57.73
2023-02-08T16:04:43.485Z,57.11
2023-02-08T16:07:48.774Z,58.58
2023-02-08T16:10:54.743Z,58.39
2023-02-08T16:13:59.485Z,59.81
2023-02-08T16:17:02.125Z,58.93
2023-02-08T16:20:22.658Z,58.72
2023-02-08T16:23:28.760Z,58.12
2023-02-08T16:26:35.431Z,59.58
2023-02-08T16:29:40.115Z,60.09
2023-02-08T16:32:42.756Z,60.36
2023-02-08T16:35:45.404Z,59.89
2023-02-08T16:39:24.292Z,61.37
2023-02-08T16:42:33.775Z,61.15
2023-02-08T16:45:36.443Z,61.52
2023-02-08T16:48:40.854Z,61.92
2023-02-08T16:51:45.041Z,62.00
2023-02-08T16:54:49.055Z,62.92
2023-02-08T16:57:53.274Z,62.54
2023-02-08T17:00:57.635Z,62.68
2023-02-08T17:04:00.341Z,62.83
2023-02-08T17:07:03.033Z,62.89
2023-02-08T17:10:09.533Z,63.16
2023-02-08T17:13:20.470Z,65.08
2023-02-08T17:16:26.726Z,64.88
2023-02-08T17:19:29.360Z,64.25
2023-02-08T17:22:31.932Z,64.83
2023-02-08T17:25:36.531Z,65.76
2023-02-08T17:28:39.567Z,66.84
2023-02-08T17:31:42.199Z,67.52
2023-02-08T17:34:44.824Z,68.01
2023-02-08T17:37:49.429Z,67.98
2023-02-08T17:40:53.388Z,67.43
2023-02-08T17:43:57.711Z,68.72
2023-02-08T17:47:00.302Z,69.82
2023-02-08T17:50:03.439Z,68.47
2023-02-08T17:53:06.032Z,69.43
2023-02-08T17:56:11.267Z,69.68
2023-02-08T17:59:13.888Z,70.72
2023-02-08T18:02:16.500Z,71.12
2023-02-08T18:05:22.137Z,70.44
2023-02-08T18:08:24.789Z,70.09
2023-02-08T18:11:28.729Z,70.74
2023-02-08T18:14:31.327Z,70.87
2023-02-08T18:17:34.654Z,71.38
2023-02-08T18:20:37.318Z,72.12
2023-02-08T18:23:40.472Z,73.22
2023-02-08T18:26:44.412Z,72.13
2023-02-08T18:29:47.160Z,73.54
2023-02-08T18:32:49.757Z,74.39
2023-02-08T18:35:52.332Z,73.26
2023-02-08T18:38:55.726Z,72.78
2023-02-08T18:41:59.778Z,75.00
2023-02-08T18:45:02.364Z,73.67
2023-02-08T18:48:04.941Z,73.74
2023-02-08T18:51:09.935Z,74.30
2023-02-08T18:54:14.199Z,73.64
2023-02-08T18:57:18.241Z,74.33
2023-02-08T19:00:21.907Z,74.61
2023-02-08T19:03:24.493Z,74.68
2023-02-08T19:06:28.778Z,75.71
2023-02-08T19:09:31.394Z,76.52
2023-02-08T19:12:37.195Z,77.09
2023-02-08T19:15:41.238Z,76.61
2023-02-08T19:18:44.084Z,77.10
2023-02-08T19:21:46.692Z,75.45
2023-02-08T19:24:49.404Z,75.83
2023-02-08T19:27:53.376Z,76.25
2023-02-08T19:31:03.665Z,75.69
2023-02-08T19:34:06.885Z,76.15
2023-02-08T19:37:09.476Z,75.96
2023-02-08T19:40:13.226Z,76.50
2023-02-08T19:43:17.146Z,77.01
2023-02-08T19:46:22.356Z,76.48
2023-02-08T19:49:27.165Z,75.63
2023-02-08T19:52:29.787Z,75.79
2023-02-08T19:55:32.385Z,76.28
2023-02-08T19:58:37.862Z,76.67
2023-02-08T20:01:40.440Z,75.88
2023-02-08T20:04:43.072Z,76.03
2023-02-08T20:07:45.650Z,74.15
2023-02-08T20:10:49.299Z,74.47
2023-02-08T20:13:55.240Z,74.21
2023-02-08T20:16:58.314Z,75.16
2023-02-08T20:20:00.893Z,74.73
2023-02-08T20:23:14.064Z,74.60
2023-02-08T20:26:25.302Z,75.08
2023-02-08T20:29:29.743Z,73.69
2023-02-08T20:32:32.342Z,72.92
2023-02-08T20:35:36.953Z,76.22
2023-02-08T20:38:40.283Z,77.88
2023-02-08T20:41:44.256Z,75.02
2023-02-08T20:44:48.245Z,74.50
2023-02-08T20:47:50.876Z,73.58
2023-02-08T20:50:53.486Z,74.05
2023-02-08T20:53:58.216Z,75.28
2023-02-08T20:57:00.808Z,75.14
2023-02-08T21:00:05.675Z,73.85
2023-02-08T21:03:08.261Z,76.79
2023-02-08T21:06:14.784Z,75.22
2023-02-08T21:09:19.536Z,75.67
2023-02-08T21:12:22.123Z,74.59
2023-02-08T21:15:26.094Z,73.83
2023-02-08T21:18:28.682Z,75.31
2023-02-08T21:21:31.404Z,74.28
2023-02-08T21:24:34.003Z,74.65
2023-02-08T21:27:36.640Z,74.45
2023-02-08T21:30:41.220Z,74.95
2023-02-08T21:33:45.040Z,74.22
2023-02-08T21:36:47.613Z,75.05
2023-02-08T21:39:50.201Z,75.19
2023-02-08T21:42:52.800Z,75.58
2023-02-08T21:45:56.791Z,74.60
2023-02-08T21:49:17.073Z,75.09
2023-02-08T21:52:36.560Z,75.37
2023-02-08T21:55:39.142Z,75.65
2023-02-08T21:58:41.761Z,75.70
2023-02-08T22:01:45.782Z,75.66
2023-02-08T22:05:07.199Z,75.26
2023-02-08T22:08:09.868Z,75.13
2023-02-08T22:11:14.864Z,75.51
2023-02-08T22:14:17.544Z,75.84
2023-02-08T22:17:21.509Z,75.22
2023-02-08T22:20:24.642Z,76.03
2023-02-08T22:23:27.239Z,76.56
2023-02-08T22:26:29.869Z,75.97
2023-02-08T22:29:32.524Z,76.75
2023-02-08T22:32:36.572Z,75.96
2023-02-08T22:35:40.308Z,76.10
2023-02-08T22:38:42.923Z,76.50
2023-02-08T22:41:45.515Z,77.00
2023-02-08T22:44:48.125Z,76.74
2023-02-08T22:47:52.113Z,76.95
2023-02-08T22:50:55.006Z,76.55
2023-02-08T22:53:57.605Z,76.20
2023-02-08T22:57:00.289Z,76.91
2023-02-08T23:00:03.614Z,76.94
2023-02-08T23:03:07.617Z,77.38
2023-02-08T23:06:11.741Z,77.58
2023-02-08T23:09:14.309Z,77.93
2023-02-08T23:12:16.942Z,77.33
2023-02-08T23:15:19.491Z,77.74
2023-02-08T23:18:23.887Z,78.12
2023-02-08T23:21:26.612Z,77.40
2023-02-08T23:24:29.250Z,77.38
2023-02-08T23:27:31.860Z,78.48
2023-02-08T23:30:34.460Z,78.49
2023-02-08T23:33:38.736Z,78.61
2023-02-08T23:36:41.317Z,78.18
2023-02-08T23:39:43.908Z,79.36
2023-02-08T23:42:46.496Z,79.44
2023-02-08T23:45:49.121Z,78.55
2023-02-08T23:48:53.235Z,78.91
2023-02-08T23:51:55.833Z,79.90
2023-02-08T23:54:58.423Z,79.60
2023-02-08T23:58:01.041Z,78.98
